createdAt,value
2023-03-26T00:01:40.702Z,9.20
2023-03-26T00:04:07.996Z,9.20
2023-03-26T00:06:39.784Z,9.20
2023-03-26T00:09:13.597Z,9.10
2023-03-26T00:11:42.618Z,9.10
2023-03-26T00:14:13.964Z,9.10
2023-03-26T00:16:44.445Z,9.00
2023-03-26T00:19:12.730Z,9.00
2023-03-26T00:21:40.072Z,9.00
2023-03-26T00:24:15.124Z,8.90
2023-03-26T00:26:44.885Z,8.90
2023-03-26T00:29:14.011Z,8.90
2023-03-26T00:31:41.299Z,8.80
2023-03-26T00:34:11.564Z,8.80
2023-03-26T00:36:42.235Z,8.80
2023-03-26T00:39:10.198Z,8.80
2023-03-26T00:41:43.208Z,8.80
2023-03-26T00:44:12.879Z,8.80
2023-03-26T00:46:40.139Z,8.70
2023-03-26T00:49:10.940Z,8.80
2023-03-26T00:51:39.378Z,8.80
2023-03-26T00:54:11.206Z,8.70
2023-03-26T00:56:38.913Z,8.80
2023-03-26T00:59:06.117Z,8.70
2023-03-26T01:01:33.343Z,8.70
2023-03-26T01:04:31.808Z,8.80
2023-03-26T01:07:02.864Z,8.70
2023-03-26T01:09:37.104Z,8.80
2023-03-26T01:12:08.731Z,8.80
2023-03-26T01:14:35.957Z,8.80
2023-03-26T01:17:07.038Z,8.80
2023-03-26T01:19:40.288Z,8.80
2023-03-26T01:22:11.290Z,8.90
2023-03-26T01:24:39.463Z,8.90
2023-03-26T01:27:27.102Z,8.80
2023-03-26T01:30:18.013Z,8.80
2023-03-26T01:33:30.011Z,8.80
2023-03-26T01:36:13.767Z,8.80
2023-03-26T01:39:02.360Z,8.80
2023-03-26T01:41:43.585Z,8.80
2023-03-26T01:44:35.026Z,8.80
2023-03-26T01:47:03.492Z,8.80
2023-03-26T01:49:31.951Z,8.70
2023-03-26T01:52:02.353Z,8.80
2023-03-26T01:54:31.932Z,8.80
2023-03-26T01:57:28.776Z,8.80
2023-03-26T02:00:07.242Z,8.80
2023-03-26T02:02:49.394Z,8.80
2023-03-26T02:05:44.180Z,8.90
2023-03-26T02:08:41.400Z,8.90
2023-03-26T02:11:14.408Z,8.90
2023-03-26T02:13:45.463Z,8.90
2023-03-26T02:16:16.628Z,8.90
2023-03-26T02:18:47.553Z,8.80
2023-03-26T02:21:20.424Z,8.80
2023-03-26T02:23:57.947Z,8.80
2023-03-26T02:26:25.883Z,8.80
2023-03-26T02:28:52.945Z,8.80
2023-03-26T02:31:21.993Z,8.80
2023-03-26T02:33:49.611Z,8.80
2023-03-26T02:36:19.633Z,8.90
2023-03-26T02:38:46.979Z,8.90
2023-03-26T02:41:14.054Z,8.90
2023-03-26T02:43:42.349Z,8.90
2023-03-26T02:46:09.852Z,8.90
2023-03-26T02:48:37.000Z,9.00
2023-03-26T02:51:06.796Z,9.00
2023-03-26T02:53:34.131Z,9.10
2023-03-26T02:56:02.263Z,9.20
2023-03-26T02:58:30.468Z,9.20
2023-03-26T03:00:57.634Z,9.30
2023-03-26T03:03:27.118Z,9.30
2023-03-26T03:05:55.467Z,9.40
2023-03-26T03:08:26.976Z,9.40
2023-03-26T03:10:58.465Z,9.40
2023-03-26T03:13:26.270Z,9.50
2023-03-26T03:15:53.862Z,9.60
2023-03-26T03:18:22.386Z,9.60
2023-03-26T03:20:50.011Z,9.70
2023-03-26T03:23:18.258Z,9.70
2023-03-26T03:25:45.537Z,9.70
2023-03-26T03:28:13.853Z,9.80
2023-03-26T03:30:41.892Z,9.80
2023-03-26T03:33:09.994Z,9.90
2023-03-26T03:35:38.606Z,10.00
2023-03-26T03:38:05.928Z,10.00
2023-03-26T03:40:33.058Z,10.00
2023-03-26T03:43:00.345Z,10.00
2023-03-26T03:45:28.637Z,10.00
2023-03-26T03:47:56.172Z,10.00
2023-03-26T03:50:23.353Z,10.00
2023-03-26T03:52:50.997Z,10.00
2023-03-26T03:55:18.260Z,10.00
2023-03-26T03:57:47.609Z,9.90
2023-03-26T04:00:15.453Z,9.90
2023-03-26T04:02:43.204Z,9.90
2023-03-26T04:05:12.314Z,9.80
2023-03-26T04:07:41.409Z,9.80
2023-03-26T04:10:09.875Z,9.80
2023-03-26T04:12:37.013Z,9.70
2023-03-26T04:15:05.088Z,9.70
2023-03-26T04:17:32.271Z,9.70
2023-03-26T04:20:14.545Z,9.60
2023-03-26T04:22:43.629Z,9.60
2023-03-26T04:25:12.739Z,9.60
2023-03-26T04:27:41.833Z,9.60
2023-03-26T04:30:15.508Z,9.60
2023-03-26T04:32:43.127Z,9.60
2023-03-26T04:35:14.533Z,9.60
2023-03-26T04:37:46.185Z,9.60
2023-03-26T04:40:20.605Z,9.60
2023-03-26T04:42:47.847Z,9.60
2023-03-26T04:45:22.744Z,9.60
2023-03-26T04:47:51.353Z,9.60
2023-03-26T04:50:18.556Z,9.70
2023-03-26T04:52:45.994Z,9.70
2023-03-26T04:55:44.171Z,9.70
2023-03-26T04:58:14.070Z,9.70
2023-03-26T05:00:41.972Z,9.70
2023-03-26T05:03:12.552Z,9.70
2023-03-26T05:05:40.703Z,9.60
2023-03-26T05:08:08.027Z,9.60
2023-03-26T05:10:35.250Z,9.60
2023-03-26T05:13:02.331Z,9.60
2023-03-26T05:15:29.456Z,9.60
2023-03-26T05:18:04.423Z,9.60
2023-03-26T05:20:31.853Z,9.70
2023-03-26T05:23:00.599Z,9.70
2023-03-26T05:25:27.807Z,9.70
2023-03-26T05:27:54.872Z,9.80
2023-03-26T05:30:22.428Z,9.90
2023-03-26T05:32:50.125Z,10.00
2023-03-26T05:35:18.507Z,10.10
2023-03-26T05:37:51.564Z,10.30
2023-03-26T05:40:18.994Z,10.40
2023-03-26T05:42:52.217Z,10.40
2023-03-26T05:45:19.457Z,10.50
2023-03-26T05:47:47.557Z,10.50
2023-03-26T05:50:14.701Z,10.60
2023-03-26T05:52:41.870Z,10.80
2023-03-26T05:55:09.446Z,11.00
2023-03-26T05:57:36.773Z,11.30
2023-03-26T06:00:13.515Z,11.50
2023-03-26T06:08:11.654Z,12.00
2023-03-26T06:10:39.417Z,12.10
2023-03-26T06:13:06.948Z,12.30
2023-03-26T06:15:35.156Z,12.30
2023-03-26T06:18:03.846Z,12.40
2023-03-26T06:20:31.174Z,12.40
2023-03-26T06:22:58.405Z,12.50
2023-03-26T06:25:25.829Z,12.60
2023-03-26T06:27:52.891Z,12.70
2023-03-26T06:30:20.238Z,12.80
2023-03-26T06:32:48.610Z,12.80
2023-03-26T06:35:16.093Z,12.90
2023-03-26T06:37:43.778Z,13.00
2023-03-26T06:40:11.982Z,13.10
2023-03-26T06:43:09.073Z,13.20
2023-03-26T06:45:28.634Z,13.20
2023-03-26T06:47:56.409Z,13.30
2023-03-26T06:50:23.653Z,13.40
2023-03-26T06:52:55.519Z,13.30
2023-03-26T06:55:23.118Z,13.40
2023-03-26T06:57:55.959Z,13.30
2023-03-26T07:00:24.770Z,13.20
2023-03-26T07:02:52.028Z,13.20
2023-03-26T07:05:19.609Z,13.30
2023-03-26T07:07:47.897Z,13.30
2023-03-26T07:10:15.303Z,13.40
2023-03-26T07:12:43.885Z,13.50
2023-03-26T07:15:11.640Z,13.60
2023-03-26T07:17:40.553Z,13.70
2023-03-26T07:20:09.741Z,13.70
2023-03-26T07:22:37.413Z,13.70
2023-03-26T07:25:06.059Z,13.90
2023-03-26T07:27:37.943Z,14.00
2023-03-26T07:30:49.525Z,14.10
2023-03-26T07:33:34.449Z,14.30
2023-03-26T07:36:13.825Z,14.50
2023-03-26T07:39:19.541Z,14.70
2023-03-26T07:42:10.129Z,14.80
2023-03-26T07:44:48.315Z,14.90
2023-03-26T07:47:31.594Z,15.00
2023-03-26T07:49:59.119Z,15.00
2023-03-26T07:52:26.733Z,14.90
2023-03-26T07:54:54.293Z,14.90
2023-03-26T07:57:44.529Z,14.80
2023-03-26T08:00:12.388Z,14.80
2023-03-26T08:03:02.824Z,14.70
2023-03-26T08:05:33.887Z,14.70
2023-03-26T08:08:09.729Z,14.70
2023-03-26T08:11:08.596Z,14.60
2023-03-26T08:14:08.084Z,14.60
2023-03-26T08:16:54.065Z,14.70
2023-03-26T08:19:38.012Z,14.70
2023-03-26T08:24:53.926Z,14.80
2023-03-26T08:27:37.830Z,15.00
2023-03-26T08:30:20.325Z,15.00
2023-03-26T08:32:56.485Z,15.00
2023-03-26T08:35:24.999Z,15.10
2023-03-26T08:37:52.234Z,15.20
2023-03-26T08:41:10.577Z,15.20
2023-03-26T08:43:47.588Z,15.30
2023-03-26T08:46:15.723Z,15.20
2023-03-26T08:48:42.928Z,15.30
2023-03-26T08:51:18.899Z,15.30
2023-03-26T08:54:09.848Z,15.30
2023-03-26T08:57:09.383Z,15.40
2023-03-26T09:00:12.358Z,15.40
2023-03-26T09:02:56.447Z,15.30
2023-03-26T09:06:02.700Z,15.10
2023-03-26T09:08:53.663Z,15.00
2023-03-26T09:11:39.041Z,15.00
2023-03-26T09:14:33.946Z,15.00
2023-03-26T09:17:32.817Z,15.10
2023-03-26T09:20:22.017Z,15.20
2023-03-26T09:23:16.485Z,15.30
2023-03-26T09:25:59.064Z,15.60
2023-03-26T09:28:57.102Z,15.80
2023-03-26T09:31:24.233Z,15.90
2023-03-26T09:33:56.444Z,16.00
2023-03-26T09:36:42.532Z,16.00
2023-03-26T09:39:51.652Z,16.30
2023-03-26T09:42:49.805Z,16.70
2023-03-26T09:45:49.593Z,17.20
2023-03-26T09:48:19.638Z,17.60
2023-03-26T09:50:59.517Z,17.90
2023-03-26T09:53:42.278Z,18.20
2023-03-26T09:56:15.789Z,18.40
2023-03-26T09:59:20.565Z,18.50
2023-03-26T10:02:04.402Z,18.60
2023-03-26T10:05:01.274Z,18.70
2023-03-26T10:08:05.020Z,18.80
2023-03-26T10:11:03.604Z,19.00
2023-03-26T10:13:50.800Z,19.00
2023-03-26T10:16:55.716Z,19.10
2023-03-26T10:19:53.626Z,19.00
2023-03-26T10:22:28.069Z,19.00
2023-03-26T10:25:14.079Z,18.80
2023-03-26T10:27:54.052Z,18.70
2023-03-26T10:30:24.401Z,18.70
2023-03-26T10:33:28.684Z,18.70
2023-03-26T10:36:27.668Z,18.70
2023-03-26T10:39:00.931Z,18.90
2023-03-26T10:41:43.072Z,19.00
2023-03-26T10:44:19.299Z,19.20
2023-03-26T10:46:52.215Z,19.30
2023-03-26T10:49:50.685Z,19.50
2023-03-26T10:52:26.821Z,19.80
2023-03-26T10:55:03.851Z,19.90
2023-03-26T10:57:34.244Z,20.00
2023-03-26T11:00:15.529Z,20.00
2023-03-26T11:03:28.763Z,20.00
2023-03-26T11:06:27.044Z,19.90
2023-03-26T11:09:24.617Z,19.90
2023-03-26T11:12:00.729Z,20.10
2023-03-26T11:14:52.387Z,20.00
2023-03-26T11:17:39.522Z,20.00
2023-03-26T11:20:52.377Z,20.00
2023-03-26T11:23:42.870Z,19.90
2023-03-26T11:26:39.351Z,19.80
2023-03-26T11:29:32.823Z,19.70
2023-03-26T11:32:37.669Z,19.50
2023-03-26T11:35:39.660Z,19.50
2023-03-26T11:38:24.473Z,19.60
2023-03-26T11:40:57.407Z,19.70
2023-03-26T11:43:30.907Z,19.80
2023-03-26T11:45:58.676Z,19.80
2023-03-26T11:48:32.240Z,19.80
2023-03-26T11:51:07.881Z,19.80
2023-03-26T11:53:40.901Z,20.00
2023-03-26T11:56:16.230Z,20.10
2023-03-26T11:59:05.823Z,20.30
2023-03-26T12:01:57.001Z,20.40
2023-03-26T12:04:34.991Z,20.40
2023-03-26T12:07:16.024Z,20.40
2023-03-26T12:09:55.910Z,20.40
2023-03-26T12:12:29.153Z,20.30
2023-03-26T12:14:56.383Z,20.20
2023-03-26T12:28:21.478Z,20.30
2023-03-26T12:31:07.671Z,20.30
2023-03-26T12:33:35.533Z,20.30
2023-03-26T12:36:31.224Z,20.30
2023-03-26T12:39:42.885Z,20.30
2023-03-26T12:44:44.495Z,20.30
2023-03-26T12:44:59.056Z,20.20
2023-03-26T12:47:59.070Z,20.20
2023-03-26T12:50:34.513Z,20.20
2023-03-26T12:53:06.365Z,20.20
2023-03-26T12:55:39.733Z,20.20
2023-03-26T12:58:24.219Z,20.20
2023-03-26T13:01:23.298Z,20.30
2023-03-26T13:04:55.019Z,20.30
2023-03-26T13:08:03.034Z,20.40
2023-03-26T13:10:42.042Z,20.50
2023-03-26T13:13:39.983Z,20.50
2023-03-26T13:16:21.683Z,20.50
2023-03-26T13:19:14.618Z,20.40
2023-03-26T13:21:54.469Z,20.50
2023-03-26T13:24:28.443Z,20.60
2023-03-26T13:27:20.429Z,20.60
2023-03-26T13:30:06.521Z,20.70
2023-03-26T13:32:52.250Z,20.80
2023-03-26T13:35:35.736Z,20.90
2023-03-26T13:38:13.780Z,20.90
2023-03-26T13:41:09.866Z,20.80
2023-03-26T13:44:03.236Z,20.80
2023-03-26T13:46:36.799Z,20.70
2023-03-26T13:49:39.887Z,20.60
2023-03-26T13:52:12.999Z,20.60
2023-03-26T13:54:44.796Z,20.60
2023-03-26T13:57:16.004Z,20.60
2023-03-26T14:00:16.496Z,20.50
2023-03-26T14:02:57.726Z,20.50
2023-03-26T14:05:42.825Z,20.50
2023-03-26T14:08:22.036Z,20.40
2023-03-26T14:11:14.600Z,20.30
2023-03-26T14:14:19.588Z,20.30
2023-03-26T14:16:59.426Z,20.20
2023-03-26T14:19:41.717Z,20.20
2023-03-26T14:22:18.575Z,20.20
2023-03-26T14:24:50.275Z,20.10
2023-03-26T14:27:37.898Z,20.00
2023-03-26T14:30:54.421Z,20.00
2023-03-26T14:33:27.284Z,19.90
2023-03-26T14:36:19.688Z,19.80
2023-03-26T14:39:06.649Z,19.70
2023-03-26T14:41:41.014Z,19.50
2023-03-26T14:44:49.062Z,19.40
2023-03-26T14:47:25.783Z,19.30
2023-03-26T14:50:38.153Z,19.20
2023-03-26T14:53:33.692Z,19.10
2023-03-26T14:56:23.448Z,19.00
2023-03-26T14:59:02.715Z,18.80
2023-03-26T15:01:47.380Z,18.70
2023-03-26T15:04:44.082Z,18.70
2023-03-26T15:07:51.385Z,18.60
2023-03-26T15:10:25.307Z,18.40
2023-03-26T15:13:03.675Z,18.30
2023-03-26T15:16:04.132Z,18.20
2023-03-26T15:18:56.289Z,18.10
2023-03-26T15:22:18.568Z,17.90
2023-03-26T15:25:53.454Z,17.90
2023-03-26T15:28:46.600Z,17.80
2023-03-26T15:31:37.261Z,17.70
2023-03-26T15:34:07.495Z,17.60
2023-03-26T15:36:56.521Z,17.50
2023-03-26T15:39:44.250Z,17.40
2023-03-26T15:43:01.622Z,17.40
2023-03-26T15:46:13.384Z,17.30
2023-03-26T15:49:06.654Z,17.30
2023-03-26T15:52:00.250Z,17.20
2023-03-26T15:54:39.547Z,17.20
2023-03-26T15:57:17.709Z,17.20
2023-03-26T16:00:19.390Z,17.20
2023-03-26T16:03:02.254Z,17.30
2023-03-26T16:05:32.357Z,17.30
2023-03-26T16:08:40.661Z,17.30
2023-03-26T16:11:15.585Z,17.20
2023-03-26T16:14:20.906Z,17.20
2023-03-26T16:16:59.369Z,17.20
2023-03-26T16:19:38.856Z,17.10
2023-03-26T16:22:11.244Z,17.00
2023-03-26T16:24:44.838Z,17.00
2023-03-26T16:27:17.829Z,16.90
2023-03-26T16:30:15.184Z,16.90
2023-03-26T16:32:56.330Z,16.80
2023-03-26T16:43:15.923Z,16.80
2023-03-26T16:46:10.111Z,16.70
2023-03-26T16:48:57.320Z,16.70
2023-03-26T16:51:39.849Z,16.70
2023-03-26T17:00:52.559Z,16.60
2023-03-26T17:03:35.604Z,16.50
2023-03-26T17:06:15.131Z,16.50
2023-03-26T17:08:57.686Z,16.40
2023-03-26T17:11:38.487Z,16.40
2023-03-26T17:14:48.976Z,16.30
2023-03-26T17:17:19.105Z,16.30
2023-03-26T17:20:15.478Z,16.20
2023-03-26T17:22:47.147Z,16.20
2023-03-26T17:25:33.186Z,16.10
2023-03-26T17:28:00.326Z,16.00
2023-03-26T17:30:45.750Z,15.80
2023-03-26T17:33:24.843Z,15.80
2023-03-26T17:36:13.305Z,15.70
2023-03-26T17:38:40.345Z,15.60
2023-03-26T17:41:17.853Z,15.50
2023-03-26T17:43:52.902Z,15.50
2023-03-26T17:46:37.739Z,15.40
2023-03-26T17:49:24.453Z,15.30
2023-03-26T17:52:01.088Z,15.20
2023-03-26T17:54:51.356Z,15.20
2023-03-26T17:57:29.223Z,15.10
2023-03-26T18:00:02.518Z,15.00
2023-03-26T18:02:43.348Z,15.00
2023-03-26T18:05:15.437Z,14.90
2023-03-26T18:08:11.588Z,14.90
2023-03-26T18:11:12.474Z,14.90
2023-03-26T18:14:15.918Z,14.80
2023-03-26T18:16:59.318Z,14.80
2023-03-26T18:19:28.649Z,14.70
2023-03-26T18:22:03.291Z,14.60
2023-03-26T18:24:38.597Z,14.50
2023-03-26T18:27:20.827Z,14.50
2023-03-26T18:30:03.853Z,14.50
2023-03-26T18:32:35.253Z,14.40
2023-03-26T18:35:24.228Z,14.40
2023-03-26T18:37:59.471Z,14.30
2023-03-26T18:40:44.885Z,14.30
2023-03-26T18:43:34.503Z,14.20
2023-03-26T18:46:16.281Z,14.10
2023-03-26T18:48:44.799Z,14.10
2023-03-26T18:51:12.771Z,14.00
2023-03-26T18:54:01.248Z,14.00
2023-03-26T18:56:40.735Z,14.00
2023-03-26T18:59:32.436Z,13.90
2023-03-26T19:02:09.942Z,13.90
2023-03-26T19:04:40.380Z,13.90
2023-03-26T19:07:16.229Z,13.80
2023-03-26T19:09:44.126Z,13.80
2023-03-26T19:12:22.858Z,13.80
2023-03-26T19:15:06.072Z,13.70
2023-03-26T19:17:38.739Z,13.70
2023-03-26T19:20:13.861Z,13.70
2023-03-26T19:22:42.489Z,13.70
2023-03-26T19:25:19.145Z,13.70
2023-03-26T19:27:46.595Z,13.70
2023-03-26T19:30:39.694Z,13.60
2023-03-26T19:33:19.106Z,13.60
2023-03-26T19:36:01.700Z,13.60
2023-03-26T19:38:37.895Z,13.50
2023-03-26T19:41:05.591Z,13.50
2023-03-26T19:43:32.910Z,13.50
2023-03-26T19:46:01.325Z,13.50
2023-03-26T19:48:46.219Z,13.40
2023-03-26T19:51:25.733Z,13.40
2023-03-26T19:53:55.629Z,13.40
2023-03-26T19:56:23.409Z,13.30
2023-03-26T19:58:51.345Z,13.30
2023-03-26T20:01:24.197Z,13.30
2023-03-26T20:04:14.104Z,13.30
2023-03-26T20:06:44.180Z,13.30
2023-03-26T20:09:13.754Z,13.30
2023-03-26T20:11:41.336Z,13.30
2023-03-26T20:14:17.506Z,13.30
2023-03-26T20:17:19.717Z,13.20
2023-03-26T20:19:49.842Z,13.20
2023-03-26T20:22:23.558Z,13.20
2023-03-26T20:24:51.746Z,13.20
2023-03-26T20:27:19.462Z,13.20
2023-03-26T20:29:49.728Z,13.30
2023-03-26T20:32:20.125Z,13.20
2023-03-26T20:34:49.877Z,13.20
2023-03-26T20:37:17.729Z,13.20
2023-03-26T20:39:45.906Z,13.20
2023-03-26T20:42:15.463Z,13.20
2023-03-26T20:44:48.443Z,13.20
2023-03-26T20:47:17.624Z,13.20
2023-03-26T20:49:48.358Z,13.20
2023-03-26T20:52:19.006Z,13.10
2023-03-26T20:54:58.164Z,13.10
2023-03-26T20:57:28.444Z,13.10
2023-03-26T20:59:55.941Z,13.10
2023-03-26T21:02:26.650Z,13.00
2023-03-26T21:04:55.318Z,12.90
2023-03-26T21:07:22.642Z,12.80
2023-03-26T21:09:50.462Z,12.80
2023-03-26T21:12:32.266Z,12.70
2023-03-26T21:15:05.188Z,12.60
2023-03-26T21:17:43.281Z,12.60
2023-03-26T21:20:13.434Z,12.50
2023-03-26T21:23:26.293Z,12.60
2023-03-26T21:26:01.462Z,12.60
2023-03-26T21:28:41.921Z,12.50
2023-03-26T21:31:21.650Z,12.50
2023-03-26T21:33:50.433Z,12.50
2023-03-26T21:36:19.948Z,12.50
2023-03-26T21:38:47.762Z,12.50
2023-03-26T21:41:26.561Z,12.50
2023-03-26T21:43:53.782Z,12.50
2023-03-26T21:46:22.137Z,12.40
2023-03-26T21:48:49.719Z,12.50
2023-03-26T21:51:19.490Z,12.40
2023-03-26T21:53:47.293Z,12.40
2023-03-26T21:56:35.759Z,12.40
2023-03-26T21:59:37.910Z,12.40
2023-03-26T22:02:20.859Z,12.40
2023-03-26T22:05:01.196Z,12.40
2023-03-26T22:07:59.772Z,12.40
2023-03-26T22:10:27.211Z,12.40
2023-03-26T22:12:54.444Z,12.40
2023-03-26T22:15:23.119Z,12.30
2023-03-26T22:17:54.306Z,12.40
2023-03-26T22:20:25.449Z,12.40
2023-03-26T22:22:55.351Z,12.40
2023-03-26T22:25:27.458Z,12.40
2023-03-26T22:27:55.851Z,12.40
2023-03-26T22:30:23.857Z,12.40
2023-03-26T22:32:51.911Z,12.40
2023-03-26T22:35:20.167Z,12.40
2023-03-26T22:37:47.610Z,12.40
2023-03-26T22:40:14.881Z,12.40
2023-03-26T22:42:42.225Z,12.30
2023-03-26T22:45:10.214Z,12.30
2023-03-26T22:47:38.465Z,12.30
2023-03-26T22:50:07.576Z,12.30
2023-03-26T22:52:36.404Z,12.20
2023-03-26T22:55:05.443Z,12.20
2023-03-26T22:57:32.824Z,12.20
2023-03-26T23:00:12.245Z,12.10
2023-03-26T23:02:40.440Z,12.10
2023-03-26T23:05:07.920Z,12.10
2023-03-26T23:07:35.419Z,12.00
2023-03-26T23:10:02.705Z,12.00
2023-03-26T23:12:29.796Z,12.00
2023-03-26T23:14:56.927Z,12.00
2023-03-26T23:17:24.773Z,12.00
2023-03-26T23:19:51.966Z,12.00
2023-03-26T23:22:19.489Z,12.10
2023-03-26T23:24:46.766Z,12.00
2023-03-26T23:27:13.911Z,12.00
2023-03-26T23:29:42.433Z,12.00
2023-03-26T23:32:23.649Z,12.00
2023-03-26T23:34:52.700Z,12.00
2023-03-26T23:37:23.446Z,12.00
2023-03-26T23:39:51.768Z,11.90
2023-03-26T23:42:28.641Z,11.90
2023-03-26T23:44:57.489Z,11.80
2023-03-26T23:47:25.788Z,11.70
2023-03-26T23:49:53.103Z,11.70
2023-03-26T23:52:20.326Z,11.70
2023-03-26T23:54:47.498Z,11.70
2023-03-26T23:57:14.756Z,11.70
2023-03-26T23:59:42.624Z,11.70
